Startpagina
METAR-TAF:

METAR-TAF

Vliegvelden :

Luchthaven Athene

Athene, Griekenland

breedte: 37-56N, lengte: 023-56E, hoogte: 94 m

Actueel weer

Dit bericht is 18 minuten geleden gemaakt, om 12:50 UTC
Wind 20 kt uit het noordoosten
Temperatuur 25°C
Vochtigheid 50%
Druk 1013 hPa
Zicht 10 km of meer
Weinig wolken op 3000 ft

METAR: LGAV 211250Z 05020KT 9999 FEW030 25/14 Q1013 NOSIG

Tijdstip: 16:08 (13:08 UTC)

Verwachting

Dit bericht is 2 uur en het 8 minuten geleden gemaakt, om 11:00 UTC
Verwachting geldig van 21 om 12 UTC tot 22 om 12 UTC
Wind 12 kt uit het noordoosten
Zicht 10 km of meer
Weinig wolken op 3000 ft
Tijdelijke
van 21 om 12 UTC tot 21 om 18 UTC
Wind 15 kt uit het noordoosten met uitschieters tot 25 kt

TAF: LGAV 211100Z 2112/2212 05012KT 9999 FEW030 TEMPO 2112/2118 05015G25KT

Waarnemingen en weersverwachtingen van meer dan 4000 vliegvelden (METAR en TAF).

De beschikbare stations zijn de gele en rode punten op de kaart.

Ga met uw muis naar het station om de naam te zien.

Klik dan om waarnemingen en weersverwachtingen te zien.

kaart wijzigen: klik op de groene knoppen met een zwart kruis om in te zoomen, op de groene knop met een streepje om uit te zoomen of op de groene pijlen voor aangrenzende kaarten.


METAR-TAF: